Time;durP1;ratioP1;P1;durP2;ratioP2;P2;SDS_P1;SDS_P2;PMS_P1;PMS_P2;Temp;Humidity;BMP_temperature;BMP_pressure;BME280_temperature;BME280_humidity;BME280_pressure;Samples;Min_cycle;Max_cycle;Signal;HPM_P1;HPM_P2
2022/07/12 00:01:26;;;;;;;6.35;1.50;;;;;;;17.02;44.35;100218.53;7739294;32;36787;-75
2022/07/12 00:05:43;;;;;;;4.25;1.23;;;;;;;16.93;44.47;100218.44;7738928;32;39444;-75
2022/07/12 00:09:59;;;;;;;2.70;1.20;;;;;;;16.88;44.53;100211.09;7738894;32;40839;-75
2022/07/12 00:14:15;;;;;;;1.52;1.12;;;;;;;16.83;44.57;100208.41;7752689;32;38899;-75
2022/07/12 00:18:31;;;;;;;3.30;1.50;;;;;;;16.73;44.97;100210.50;7765761;32;37201;-76
2022/07/12 00:22:48;;;;;;;4.37;1.60;;;;;;;16.60;45.16;100207.44;7763341;32;40010;-76
2022/07/12 00:27:05;;;;;;;3.08;1.20;;;;;;;16.46;45.19;100215.66;7765476;32;39931;-75
2022/07/12 00:31:21;;;;;;;3.87;1.33;;;;;;;16.74;44.61;100217.66;7764276;32;38034;-74
2022/07/12 00:35:37;;;;;;;6.93;1.52;;;;;;;16.70;44.68;100218.25;7765539;32;38004;-75
2022/07/12 00:39:54;;;;;;;1.20;1.10;;;;;;;16.61;45.08;100213.75;7749627;32;40129;-75
2022/07/12 00:44:11;;;;;;;1.52;1.23;;;;;;;16.55;45.42;100215.78;7738411;32;40136;-75
2022/07/12 00:48:27;;;;;;;3.15;1.27;;;;;;;16.92;44.37;100224.25;7738437;32;38859;-75
2022/07/12 00:52:45;;;;;;;5.12;1.40;;;;;;;17.05;45.79;100221.50;7738305;32;37881;-75
2022/07/12 00:57:01;;;;;;;2.87;1.35;;;;;;;16.80;44.90;100225.53;7737143;32;39442;-76
2022/07/12 01:01:17;;;;;;;5.40;1.52;;;;;;;16.88;45.04;100232.28;7738215;32;40182;-75
2022/07/12 01:05:33;;;;;;;5.75;1.60;;;;;;;16.59;45.73;100238.00;7737989;32;37954;-76
2022/07/12 01:09:51;;;;;;;4.50;1.37;;;;;;;16.36;46.09;100237.81;7752117;32;36992;-75
2022/07/12 01:14:07;;;;;;;3.50;1.60;;;;;;;16.44;45.65;100228.88;7752572;32;39411;-75
2022/07/12 01:18:25;;;;;;;3.67;1.42;;;;;;;16.49;45.49;100231.56;7737537;32;40277;-75
2022/07/12 01:22:50;;;;;;;2.53;1.30;;;;;;;16.62;45.38;100223.63;7736754;32;36941;-74
2022/07/12 01:27:07;;;;;;;3.30;1.55;;;;;;;16.34;46.11;100220.81;7738684;32;37748;-75
2022/07/12 01:31:23;;;;;;;4.87;1.27;;;;;;;16.23;46.62;100228.41;7736648;32;40083;-76
2022/07/12 01:35:39;;;;;;;2.97;1.52;;;;;;;16.12;47.05;100219.47;7753728;32;40138;-76
2022/07/12 01:39:57;;;;;;;2.65;1.58;;;;;;;16.22;46.53;100220.44;7763419;32;37917;-76
2022/07/12 01:44:13;;;;;;;6.72;1.60;;;;;;;16.18;46.70;100222.16;7764500;32;37039;-76
2022/07/12 01:48:29;;;;;;;2.25;1.45;;;;;;;16.02;47.33;100219.63;7764532;32;39305;-76
2022/07/12 01:52:45;;;;;;;3.78;1.48;;;;;;;16.23;46.96;100227.56;7764483;32;39642;-76
2022/07/12 01:57:03;;;;;;;4.40;1.25;;;;;;;16.26;46.90;100235.22;7764186;32;37694;-77
2022/07/12 02:01:19;;;;;;;1.90;1.50;;;;;;;15.88;48.04;100218.75;7764258;32;37222;-75
2022/07/12 02:05:36;;;;;;;2.08;1.52;;;;;;;15.70;48.64;100209.34;7747551;32;40163;-75
2022/07/12 02:09:52;;;;;;;1.60;1.35;;;;;;;15.61;49.04;100219.34;7737134;32;40629;-76
2022/07/12 02:14:09;;;;;;;3.42;1.60;;;;;;;15.56;49.96;100214.75;7736975;32;38756;-77
2022/07/12 02:18:25;;;;;;;3.65;1.67;;;;;;;15.53;50.55;100218.09;7736928;32;37051;-75
2022/07/12 02:22:42;;;;;;;2.53;1.42;;;;;;;15.55;50.70;100213.09;7736752;32;39501;-76
2022/07/12 02:26:58;;;;;;;3.45;1.62;;;;;;;15.52;50.80;100217.28;7736477;32;39754;-77
2022/07/12 02:31:14;;;;;;;4.07;1.58;;;;;;;15.38;51.43;100208.94;7735988;32;38719;-76
2022/07/12 02:35:33;;;;;;;7.15;2.05;;;;;;;15.49;50.97;100209.63;7736415;32;37726;-76
2022/07/12 02:39:50;;;;;;;3.75;1.70;;;;;;;15.42;51.35;100209.16;7736276;32;39152;-77
2022/07/12 02:44:06;;;;;;;4.22;1.70;;;;;;;15.65;50.46;100204.72;7736116;32;39671;-76
2022/07/12 02:48:22;;;;;;;3.75;1.70;;;;;;;15.64;50.52;100211.34;7738903;32;37727;-77
2022/07/12 02:52:38;;;;;;;2.55;1.70;;;;;;;15.46;51.59;100225.88;7739791;32;37451;-76
2022/07/12 02:56:54;;;;;;;3.78;1.73;;;;;;;15.28;52.38;100220.06;7739808;32;40041;-76
2022/07/12 03:01:11;;;;;;;4.20;2.05;;;;;;;15.21;52.96;100220.41;7752775;32;40000;-74
2022/07/12 03:05:27;;;;;;;4.47;1.60;;;;;;;15.15;53.16;100226.22;7766381;32;37917;-75
2022/07/12 03:09:43;;;;;;;4.53;1.60;;;;;;;15.20;52.83;100228.94;7766563;32;36990;-76
2022/07/12 03:13:59;;;;;;;2.22;1.52;;;;;;;15.30;52.56;100228.81;7741202;32;39315;-76
2022/07/12 03:18:17;;;;;;;7.00;1.60;;;;;;;15.16;52.45;100234.19;7739431;32;39616;-76
2022/07/12 03:22:33;;;;;;;3.42;1.83;;;;;;;15.37;51.68;100234.75;7739197;32;38798;-76
2022/07/12 03:26:51;;;;;;;2.78;1.65;;;;;;;15.16;52.89;100247.06;7753930;32;38069;-74
2022/07/12 03:31:07;;;;;;;2.75;1.80;;;;;;;15.12;53.05;100244.09;7766324;32;40051;-75
2022/07/12 03:35:24;;;;;;;8.38;1.70;;;;;;;15.29;52.89;100248.31;7766131;32;39909;-75
2022/07/12 03:39:40;;;;;;;2.97;1.60;;;;;;;15.25;52.92;100248.09;7757758;32;37691;-76
2022/07/12 03:43:56;;;;;;;5.57;1.50;;;;;;;15.36;52.54;100248.78;7739126;32;36814;-76
2022/07/12 03:48:12;;;;;;;2.40;1.50;;;;;;;15.31;52.55;100252.41;7739149;32;40248;-76
2022/07/12 03:52:28;;;;;;;2.67;1.70;;;;;;;15.32;52.66;100254.06;7738959;32;39862;-76
2022/07/12 04:01:19;;;;;;;3.62;1.70;;;;;;;15.49;51.77;100252.78;7738793;32;37182;-75
2022/07/12 04:05:35;;;;;;;2.97;1.50;;;;;;;15.65;51.07;100256.94;7750109;32;39988;-75
2022/07/12 04:09:51;;;;;;;6.45;1.50;;;;;;;15.38;51.86;100257.53;7765634;32;40070;-75
2022/07/12 04:14:07;;;;;;;2.00;1.52;;;;;;;15.35;51.91;100250.72;7765802;32;37638;-76
2022/07/12 04:18:24;;;;;;;5.80;2.10;;;;;;;15.36;51.75;100244.09;7765759;32;36801;-77
2022/07/12 04:22:45;;;;;;;4.18;1.60;;;;;;;15.58;51.03;100251.00;7765806;32;40137;-75
2022/07/12 04:27:01;;;;;;;2.00;1.60;;;;;;;15.71;50.68;100254.94;7765172;32;40802;-76
2022/07/12 04:31:17;;;;;;;2.45;1.48;;;;;;;15.58;51.02;100256.50;7765628;32;38050;-75
2022/07/12 04:35:34;;;;;;;3.33;1.77;;;;;;;15.65;50.78;100264.37;7764987;32;37070;-76
2022/07/12 04:39:50;;;;;;;2.30;1.40;;;;;;;15.83;50.42;100246.31;7738504;32;39330;-76
2022/07/12 04:44:07;;;;;;;3.78;1.50;;;;;;;15.78;50.74;100252.72;7738268;32;40746;-76
2022/07/12 04:48:23;;;;;;;2.75;1.55;;;;;;;15.93;50.37;100252.47;7738275;32;38786;-76
2022/07/12 04:52:39;;;;;;;5.85;1.87;;;;;;;16.19;49.94;100251.28;7738295;32;37305;-75
2022/07/12 04:56:55;;;;;;;2.67;1.40;;;;;;;15.82;50.40;100261.19;7738224;32;40196;-75
2022/07/12 05:01:11;;;;;;;2.78;1.80;;;;;;;16.29;49.86;100248.41;7737681;32;40786;-75
2022/07/12 05:05:27;;;;;;;5.03;1.95;;;;;;;16.24;49.26;100245.72;7737898;32;38739;-76
2022/07/12 05:09:43;;;;;;;3.83;1.65;;;;;;;16.61;48.75;100244.00;7763078;32;36997;-76
2022/07/12 05:14:00;;;;;;;5.07;1.55;;;;;;;16.78;48.52;100241.53;7739669;32;40060;-75
2022/07/12 05:18:16;;;;;;;4.70;2.40;;;;;;;16.79;49.06;100243.16;7737949;32;40379;-75
2022/07/12 05:22:32;;;;;;;6.32;1.92;;;;;;;16.69;49.14;100252.44;7737850;32;37878;-75
2022/07/12 05:26:48;;;;;;;1.42;1.33;;;;;;;16.81;49.08;100251.91;7738348;32;36929;-76
2022/07/12 05:31:04;;;;;;;4.65;1.62;;;;;;;16.87;48.60;100248.00;7737761;32;40118;-71
2022/07/12 05:35:20;;;;;;;5.18;1.50;;;;;;;16.80;48.55;100253.06;7737750;32;39960;-74
2022/07/12 05:39:36;;;;;;;3.78;1.77;;;;;;;17.37;47.76;100241.03;7737843;32;37954;-76
2022/07/12 05:43:59;;;;;;;3.80;1.60;;;;;;;17.62;47.09;100246.00;7736338;32;36962;-75
2022/07/12 05:48:15;;;;;;;14.57;1.92;;;;;;;17.82;46.43;100258.53;7737624;32;39993;-73
2022/07/12 05:57:06;;;;;;;3.55;1.23;;;;;;;18.19;45.26;100242.00;7737310;32;38684;-75
2022/07/12 06:01:22;;;;;;;2.55;1.30;;;;;;;18.37;44.34;100241.03;7735876;32;36971;-80
2022/07/12 06:05:38;;;;;;;3.28;1.30;;;;;;;18.67;43.71;100235.88;7738226;32;39951;-81
2022/07/12 06:09:55;;;;;;;3.53;0.98;;;;;;;19.01;42.95;100234.47;7761531;32;40452;-79
2022/07/12 06:14:11;;;;;;;2.53;1.25;;;;;;;19.48;41.98;100226.50;7734853;32;37917;-78
2022/07/12 06:18:28;;;;;;;1.87;1.02;;;;;;;19.69;41.58;100223.94;7733217;32;38434;-77
2022/07/12 06:22:44;;;;;;;2.47;1.10;;;;;;;19.81;41.04;100228.88;7735417;32;39843;-79
2022/07/12 06:27:00;;;;;;;5.28;1.00;;;;;;;19.85;40.07;100224.34;7736431;32;39869;-81
2022/07/12 06:31:16;;;;;;;1.25;0.80;;;;;;;19.74;40.31;100223.03;7739426;32;38049;-81
2022/07/12 06:35:34;;;;;;;4.90;1.08;;;;;;;19.73;40.10;100226.91;7740059;32;37060;-80
2022/07/12 06:39:50;;;;;;;0.90;0.85;;;;;;;19.89;39.49;100225.31;7753495;32;39505;-80
2022/07/12 06:44:07;;;;;;;2.55;1.00;;;;;;;19.81;39.97;100223.34;7766748;32;39928;-78
2022/07/12 06:48:23;;;;;;;1.98;0.70;;;;;;;19.70;40.07;100222.03;7766754;32;37980;-80
2022/07/12 06:52:40;;;;;;;3.42;1.08;;;;;;;19.80;40.39;100227.28;7766797;32;36985;-79
2022/07/12 06:56:56;;;;;;;2.47;1.33;;;;;;;20.66;38.96;100222.03;7753906;32;39853;-79
2022/07/12 07:01:12;;;;;;;2.45;1.23;;;;;;;21.10;38.24;100219.16;7757488;32;40569;-79
2022/07/12 07:05:29;;;;;;;2.08;1.23;;;;;;;20.35;40.82;100220.28;7740842;32;38169;-78
2022/07/12 07:09:45;;;;;;;4.53;1.20;;;;;;;20.52;40.87;100224.16;7741858;32;37053;-79
2022/07/12 07:14:02;;;;;;;2.92;1.25;;;;;;;20.30;40.89;100222.41;7752853;32;39317;-79
2022/07/12 07:18:18;;;;;;;5.30;1.70;;;;;;;20.56;40.77;100225.97;7766224;32;39634;-80
2022/07/12 07:22:34;;;;;;;4.35;1.12;;;;;;;20.80;40.05;100221.88;7766325;32;38746;-79
2022/07/12 07:26:51;;;;;;;1.58;1.10;;;;;;;21.37;38.34;100221.47;7765485;32;37850;-79
2022/07/12 07:31:13;;;;;;;2.50;0.93;;;;;;;21.59;38.30;100222.34;7766202;32;39400;-78
2022/07/12 07:35:29;;;;;;;6.37;0.90;;;;;;;22.18;36.86;100217.84;7766149;32;39946;-80
2022/07/12 07:39:45;;;;;;;5.35;1.30;;;;;;;22.37;35.22;100212.66;7765928;32;38087;-80
2022/07/12 07:44:02;;;;;;;4.47;1.00;;;;;;;22.83;34.02;100210.69;7766065;32;38035;-82
2022/07/12 07:48:18;;;;;;;2.15;0.75;;;;;;;22.99;33.23;100212.81;7766124;32;39967;-80
2022/07/12 07:52:40;;;;;;;4.10;1.20;;;;;;;22.81;32.57;100214.97;7756962;32;39707;-80
2022/07/12 07:56:56;;;;;;;3.12;0.80;;;;;;;23.24;32.28;100208.91;7738953;32;38579;-80
2022/07/12 08:01:17;;;;;;;3.72;0.82;;;;;;;23.62;32.04;100204.16;7738961;32;37757;-80
2022/07/12 08:05:33;;;;;;;2.37;1.20;;;;;;;23.46;32.91;100195.72;7737624;32;40063;-80
2022/07/12 08:09:49;;;;;;;4.65;1.10;;;;;;;23.99;31.12;100206.87;7738890;32;39861;-80
2022/07/12 08:14:07;;;;;;;5.93;1.20;;;;;;;23.89;32.08;100197.06;7738779;32;38511;-77
2022/07/12 08:18:23;;;;;;;2.67;0.88;;;;;;;24.27;31.99;100198.56;7738715;32;37130;-77
2022/07/12 08:22:46;;;;;;;3.47;1.00;;;;;;;23.78;31.89;100195.88;7739309;32;40068;-72
2022/07/12 08:27:02;;;;;;;;;;;;;;;23.56;33.07;100199.97;7738874;32;39866;-80
2022/07/12 08:31:18;;;;;;;2.42;1.20;;;;;;;22.57;33.91;100210.16;7738735;32;39055;-75
2022/07/12 08:35:35;;;;;;;2.62;0.93;;;;;;;22.53;34.30;100203.69;7738647;32;37163;-76
2022/07/12 08:39:51;;;;;;;3.12;0.82;;;;;;;22.24;34.46;100208.16;7744818;32;39362;-80
2022/07/12 08:44:07;;;;;;;4.55;0.98;;;;;;;22.70;33.72;100189.59;7757189;32;40231;-80
2022/07/12 08:48:23;;;;;;;4.45;0.73;;;;;;;22.82;32.95;100174.94;7765533;32;38049;-80
2022/07/12 08:52:41;;;;;;;0.80;0.80;;;;;;;23.19;33.56;100181.34;7765351;32;37764;-79
2022/07/12 08:56:58;;;;;;;4.87;0.70;;;;;;;23.39;32.35;100164.88;7754006;32;39530;-80
2022/07/12 09:01:34;;;;;;;1.65;0.73;;;;;;;24.15;29.76;100163.19;7738338;32;39941;-79
2022/07/12 09:05:55;;;;;;;3.65;0.93;;;;;;;24.29;29.10;100148.06;7754464;32;38056;-83
2022/07/12 09:10:12;;;;;;;2.58;0.65;;;;;;;24.74;29.30;100158.03;7765170;32;37259;-79
2022/07/12 09:14:28;;;;;;;1.55;0.65;;;;;;;24.68;28.65;100160.28;7765104;32;40136;-80
2022/07/12 09:18:45;;;;;;;2.40;0.88;;;;;;;24.87;27.79;100145.63;7737940;32;39935;-81
2022/07/12 09:23:04;;;;;;;3.22;0.65;;;;;;;24.66;27.63;100162.59;7736122;32;37903;-80
2022/07/12 09:27:26;;;;;;;1.25;0.52;;;;;;;24.93;27.75;100155.31;7750795;32;36933;-80
2022/07/12 09:36:26;;;;;;;1.95;0.60;;;;;;;24.92;26.94;100156.50;7762161;32;40736;-80
2022/07/12 09:40:42;;;;;;;2.67;0.80;;;;;;;24.55;27.90;100165.09;7747927;32;38659;-81
2022/07/12 09:44:58;;;;;;;3.78;0.88;;;;;;;25.01;26.77;100161.91;7754671;32;37037;-80
2022/07/12 09:49:15;;;;;;;3.83;0.50;;;;;;;24.58;27.17;100152.44;7762609;32;40030;-80
2022/07/12 09:53:48;;;;;;;1.90;0.57;;;;;;;25.03;25.43;100156.78;7763646;32;40506;-79
2022/07/12 09:58:07;;;;;;;4.45;1.33;;;;;;;25.97;24.47;100151.34;7763082;32;38851;-78
2022/07/12 10:02:23;;;;;;;0.98;0.60;;;;;;;25.90;25.07;100150.38;7759432;32;36085;-79
2022/07/12 10:06:40;;;;;;;4.47;0.73;;;;;;;26.41;23.89;100141.84;7753456;32;39137;-79
2022/07/12 10:10:57;;;;;;;3.53;1.15;;;;;;;26.02;24.59;100153.84;7748513;32;40560;-77
2022/07/12 10:15:19;;;;;;;20.65;2.28;;;;;;;25.67;22.71;100153.88;7758708;32;37953;-77
2022/07/12 10:19:36;;;;;;;4.57;0.70;;;;;;;25.49;24.78;100162.66;7761034;32;37266;-76
2022/07/12 10:23:52;;;;;;;12.88;0.70;;;;;;;26.06;23.50;100148.34;7763193;32;39065;-78
2022/07/12 10:28:08;;;;;;;2.55;0.77;;;;;;;25.41;25.42;100152.50;7755171;32;39777;-76
2022/07/12 10:32:41;;;;;;;2.03;0.65;;;;;;;24.70;25.22;100159.94;7753725;32;38714;-74
2022/07/12 10:36:57;;;;;;;4.35;1.58;;;;;;;25.44;24.77;100151.78;7734532;32;37312;-75
2022/07/12 10:41:33;;;;;;;1.85;0.68;;;;;;;25.85;24.65;100138.31;7741420;32;39082;-73
2022/07/12 10:45:49;;;;;;;1.05;0.80;;;;;;;25.78;23.61;100146.53;7735453;32;40835;-74
2022/07/12 10:50:06;;;;;;;2.58;1.00;;;;;;;25.51;24.17;100145.56;7735461;32;38666;-76
2022/07/12 10:54:22;;;;;;;2.35;0.70;;;;;;;26.04;26.69;100145.09;7735610;32;37643;-76
2022/07/12 10:58:41;;;;;;;7.10;1.20;;;;;;;27.04;22.72;100132.13;7735630;32;39357;-74
2022/07/12 11:03:01;;;;;;;1.73;0.80;;;;;;;27.28;23.08;100128.13;7734990;32;40850;-78
2022/07/12 11:07:18;;;;;;;2.00;0.60;;;;;;;27.85;22.10;100130.09;7734109;32;38637;-73
2022/07/12 11:11:44;;;;;;;1.65;0.88;;;;;;;27.51;22.58;100130.06;7737882;32;37037;-74
2022/07/12 11:16:01;;;;;;;1.42;0.55;;;;;;;27.48;21.86;100133.62;7739551;32;39115;-74
2022/07/12 11:20:17;;;;;;;1.90;0.75;;;;;;;27.87;22.49;100116.50;7739416;32;39991;-74
2022/07/12 11:24:36;;;;;;;12.05;1.67;;;;;;;27.10;21.91;100138.25;7739072;32;38800;-74
2022/07/12 11:28:57;;;;;;;1.30;0.80;;;;;;;26.75;22.66;100133.66;7739866;32;37879;-75
2022/07/12 11:33:13;;;;;;;4.97;1.85;;;;;;;26.96;22.77;100136.81;7738228;32;39223;-75
2022/07/12 11:37:30;;;;;;;4.35;1.80;;;;;;;27.49;21.59;100121.22;7739295;32;39988;-76
2022/07/12 11:41:57;;;;;;;4.45;2.25;;;;;;;27.57;20.22;100122.94;7739153;32;37934;-76
2022/07/12 11:46:13;;;;;;;7.93;3.37;;;;;;;27.00;20.65;100122.88;7739125;32;37062;-76
2022/07/12 11:50:31;;;;;;;4.65;1.60;;;;;;;27.07;21.90;100123.00;7737995;32;39053;-75
2022/07/12 11:54:52;;;;;;;1.33;0.70;;;;;;;27.07;20.01;100119.41;7739019;32;40850;-76
2022/07/12 11:59:09;;;;;;;7.82;1.02;;;;;;;27.11;21.25;100111.84;7737663;32;38635;-76
2022/07/12 12:03:26;;;;;;;1.98;1.00;;;;;;;27.70;20.68;100098.31;7737830;32;37966;-77
2022/07/12 12:07:42;;;;;;;1.45;0.60;;;;;;;28.20;19.90;100098.94;7738857;32;40058;-76
2022/07/12 12:11:59;;;;;;;2.80;0.40;;;;;;;28.22;17.98;100088.13;7737584;32;39859;-77
2022/07/12 12:16:15;;;;;;;0.40;0.40;;;;;;;27.62;17.85;100091.81;7738716;32;38882;-77
2022/07/12 12:20:34;;;;;;;3.12;0.60;;;;;;;28.94;18.11;100085.16;7737577;32;36986;-75
2022/07/12 12:25:00;;;;;;;0.80;0.50;;;;;;;28.75;18.47;100084.25;7738487;32;39359;-75
2022/07/12 12:29:17;;;;;;;1.25;0.28;;;;;;;28.74;17.74;100088.22;7738647;32;40047;-74
2022/07/12 12:33:39;;;;;;;1.30;0.40;;;;;;;28.54;17.91;100084.81;7738459;32;38880;-75
2022/07/12 12:37:58;;;;;;;0.37;0.32;;;;;;;28.84;16.45;100070.69;7738748;32;37020;-75
2022/07/12 12:42:23;;;;;;;1.65;0.40;;;;;;;28.26;17.08;100062.94;7738511;32;39365;-75
2022/07/12 12:46:56;;;;;;;1.58;0.40;;;;;;;29.53;16.24;100069.09;7737342;32;41066;-75
2022/07/12 12:51:12;;;;;;;1.33;0.60;;;;;;;29.95;16.25;100078.09;7738556;32;38801;-76
2022/07/12 12:55:28;;;;;;;0.57;0.50;;;;;;;29.99;16.49;100070.47;7738443;32;36989;-75
2022/07/12 12:59:45;;;;;;;0.35;0.32;;;;;;;31.08;15.86;100067.37;7738374;32;39299;-76
2022/07/12 13:04:01;;;;;;;0.60;0.45;;;;;;;29.70;15.53;100070.38;7738279;32;39907;-75
2022/07/12 13:08:17;;;;;;;1.40;0.50;;;;;;;29.59;16.29;100080.75;7738099;32;38662;-74
2022/07/12 13:12:34;;;;;;;0.30;0.30;;;;;;;29.96;16.29;100058.03;7738440;32;37014;-74
2022/07/12 13:16:50;;;;;;;2.67;0.50;;;;;;;30.55;15.72;100056.94;7738117;32;39243;-75
2022/07/12 13:21:07;;;;;;;1.17;0.25;;;;;;;30.32;15.32;100065.72;7730060;32;241337;-74
2022/07/12 13:25:24;;;;;;;1.25;0.43;;;;;;;30.01;16.35;100056.84;7737537;32;38752;-75
2022/07/12 13:29:41;;;;;;;2.05;0.35;;;;;;;30.53;16.00;100056.53;7737205;32;37515;-74
2022/07/12 13:33:57;;;;;;;0.40;0.40;;;;;;;29.51;16.75;100067.87;7737892;32;40115;-75
2022/07/12 13:38:13;;;;;;;3.75;0.75;;;;;;;29.33;17.91;100070.59;7737722;32;40821;-75
2022/07/12 13:42:29;;;;;;;1.75;0.43;;;;;;;29.52;18.63;100081.53;7737674;32;38027;-74
2022/07/12 13:46:45;;;;;;;0.90;0.32;;;;;;;29.75;17.67;100078.44;7737592;32;37088;-75
2022/07/12 13:51:01;;;;;;;3.03;0.50;;;;;;;30.24;17.65;100083.81;7737583;32;40074;-75
2022/07/12 13:55:37;;;;;;;3.87;0.37;;;;;;;30.91;17.02;100071.00;7737039;32;40136;-75
2022/07/12 13:59:53;;;;;;;0.37;0.37;;;;;;;30.45;16.76;100075.41;7737263;32;38680;-74
2022/07/12 14:04:10;;;;;;;1.55;0.25;;;;;;;30.76;16.77;100080.66;7737250;32;37660;-75
2022/07/12 14:08:26;;;;;;;0.98;0.22;;;;;;;31.10;16.20;100074.59;7737168;32;40101;-76
2022/07/12 14:12:43;;;;;;;0.37;0.37;;;;;;;31.31;15.03;100080.19;7723564;32;39853;-76
2022/07/12 14:16:59;;;;;;;1.23;0.35;;;;;;;31.43;14.26;100065.66;7736821;32;38167;-74
2022/07/12 14:21:16;;;;;;;0.47;0.35;;;;;;;31.56;13.75;100070.87;7736807;32;36797;-77
2022/07/12 14:25:33;;;;;;;9.93;0.80;;;;;;;31.44;14.42;100072.91;7736586;32;39217;-76
2022/07/12 14:29:49;;;;;;;4.57;0.30;;;;;;;31.49;14.09;100068.03;7736551;32;40035;-77
2022/07/12 14:34:05;;;;;;;4.65;0.80;;;;;;;31.93;14.47;100053.38;7736481;32;38008;-77
2022/07/12 14:38:21;;;;;;;1.00;0.30;;;;;;;31.62;14.59;100072.06;7736648;32;37289;-75
2022/07/12 14:42:37;;;;;;;0.80;0.30;;;;;;;31.96;12.67;100046.91;7737533;32;40103;-75
2022/07/12 14:46:53;;;;;;;5.40;0.60;;;;;;;32.27;13.56;100037.88;7739805;32;40734;-76
2022/07/12 14:51:10;;;;;;;0.68;0.25;;;;;;;32.41;13.08;100037.78;7739699;32;37752;-75
2022/07/12 14:55:26;;;;;;;2.97;0.47;;;;;;;32.44;13.44;100041.75;7739834;32;37070;-75
2022/07/12 14:59:42;;;;;;;0.35;0.30;;;;;;;32.47;13.21;100029.66;7739779;32;39271;-78
2022/07/12 15:03:59;;;;;;;0.60;0.45;;;;;;;32.35;13.90;100017.66;7739676;32;40754;-79
2022/07/12 15:08:15;;;;;;;2.53;0.50;;;;;;;31.45;14.03;100037.88;7739524;32;38057;-75
2022/07/12 15:12:32;;;;;;;1.67;0.40;;;;;;;30.64;14.29;100034.81;7739555;32;37117;-75
2022/07/12 15:16:48;;;;;;;1.30;0.40;;;;;;;30.67;15.12;100028.41;7739603;32;39146;-77
2022/07/12 15:21:04;;;;;;;1.60;0.40;;;;;;;30.60;14.77;100039.66;7736241;32;39749;-75
2022/07/12 15:25:21;;;;;;;0.60;0.28;;;;;;;30.23;15.98;100040.81;7765291;32;38799;-76
2022/07/12 15:29:42;;;;;;;1.12;0.40;;;;;;;30.33;15.75;100025.16;7765821;32;37230;-77
2022/07/12 15:33:58;;;;;;;0.37;0.30;;;;;;;30.42;15.54;100034.03;7765228;32;39310;-77
2022/07/12 15:38:14;;;;;;;6.07;0.50;;;;;;;30.99;15.43;100033.19;7765898;32;40745;-77
2022/07/12 15:42:30;;;;;;;0.45;0.30;;;;;;;30.54;14.98;100043.28;7765056;32;38695;-77
2022/07/12 15:46:47;;;;;;;0.88;0.40;;;;;;;30.13;15.81;100041.59;7765892;32;37776;-74
2022/07/12 15:51:03;;;;;;;0.85;0.37;;;;;;;30.13;16.35;100050.84;7765416;32;40179;-75
2022/07/12 15:55:19;;;;;;;1.27;0.50;;;;;;;29.17;17.61;100052.06;7765174;32;39876;-73
2022/07/12 15:59:35;;;;;;;7.18;0.50;;;;;;;28.78;18.34;100057.41;7765417;32;37877;-73
2022/07/12 16:03:51;;;;;;;2.33;0.82;;;;;;;28.38;18.42;100051.44;7764853;32;36988;-75
2022/07/12 16:08:19;;;;;;;4.45;0.60;;;;;;;27.97;19.50;100071.03;7765749;32;39333;-75
2022/07/12 16:12:36;;;;;;;2.28;0.50;;;;;;;28.18;19.40;100070.50;7764806;32;40029;-75
2022/07/12 16:16:52;;;;;;;7.30;0.57;;;;;;;28.47;20.47;100070.75;7765633;32;37924;-75
2022/07/12 16:21:09;;;;;;;8.60;0.77;;;;;;;27.90;22.02;100093.34;7765119;32;37361;-74
2022/07/12 16:25:25;;;;;;;2.22;0.65;;;;;;;27.23;23.03;100080.06;7765006;32;39372;-74
2022/07/12 16:29:41;;;;;;;6.40;0.90;;;;;;;27.21;23.11;100086.03;7765159;32;40788;-75
2022/07/12 16:33:57;;;;;;;1.73;0.98;;;;;;;26.83;23.85;100087.06;7764533;32;38668;-75
2022/07/12 16:38:14;;;;;;;2.35;0.80;;;;;;;25.89;24.92;100096.50;7765694;32;36793;-75
2022/07/12 16:42:30;;;;;;;6.47;2.80;;;;;;;26.04;24.51;100094.81;7765039;32;39071;-76
2022/07/12 16:46:46;;;;;;;4.15;1.30;;;;;;;25.95;24.74;100089.47;7764924;32;40619;-75
2022/07/12 16:55:37;;;;;;;0.40;0.40;;;;;;;26.33;24.39;100084.97;7765150;32;36802;-74
2022/07/12 16:59:53;;;;;;;4.72;0.90;;;;;;;26.26;24.36;100090.44;7765184;32;39406;-74
2022/07/12 17:04:09;;;;;;;0.75;0.75;;;;;;;26.60;23.60;100085.84;7762360;32;39988;-76
2022/07/12 17:08:25;;;;;;;0.57;0.45;;;;;;;26.53;23.49;100087.75;7747044;32;38780;-75
2022/07/12 17:12:41;;;;;;;1.62;0.60;;;;;;;26.02;25.02;100080.41;7743798;32;37131;-76
2022/07/12 17:16:57;;;;;;;2.47;0.60;;;;;;;25.95;26.32;100085.88;7764652;32;40221;-75
2022/07/12 17:21:14;;;;;;;2.65;0.50;;;;;;;25.47;27.73;100094.41;7764506;32;40636;-76
2022/07/12 17:25:30;;;;;;;1.05;0.80;;;;;;;25.60;26.52;100087.53;7763332;32;38590;-74
2022/07/12 17:29:46;;;;;;;4.30;0.62;;;;;;;25.47;26.02;100088.84;7752462;32;36969;-76
2022/07/12 17:34:03;;;;;;;3.58;0.82;;;;;;;25.35;26.17;100092.56;7759315;32;39361;-74
2022/07/12 17:38:19;;;;;;;3.12;1.33;;;;;;;24.80;27.23;100097.22;7737327;32;40457;-74
2022/07/12 17:42:35;;;;;;;2.10;1.33;;;;;;;25.00;26.83;100098.91;7742423;32;38069;-75
2022/07/12 17:47:05;;;;;;;7.10;2.60;;;;;;;24.99;26.98;100091.75;7736439;32;37323;-72
2022/07/12 17:51:21;;;;;;;2.65;0.80;;;;;;;25.04;27.19;100087.84;7733877;32;39047;-78
2022/07/12 17:55:39;;;;;;;4.05;1.85;;;;;;;24.72;27.91;100094.28;7733715;32;38997;-79
2022/07/12 17:59:55;;;;;;;10.60;3.70;;;;;;;24.88;28.11;100090.66;7751523;32;38735;-79
2022/07/12 18:04:12;;;;;;;4.62;2.42;;;;;;;24.76;27.57;100091.56;7762788;32;38277;-78
2022/07/12 18:08:28;;;;;;;4.53;1.80;;;;;;;25.05;27.25;100095.84;7742210;32;39157;-74
2022/07/12 18:21:55;;;;;;;14.73;5.60;;;;;;;24.79;27.72;100098.41;7750471;32;37164;-74
2022/07/12 18:26:11;;;;;;;3.90;1.70;;;;;;;24.83;27.64;100099.31;7745037;32;38614;-73
2022/07/12 18:30:33;;;;;;;2.72;1.33;;;;;;;24.88;27.67;100096.25;7747342;32;40966;-75
2022/07/12 18:34:50;;;;;;;4.65;0.98;;;;;;;24.71;27.76;100103.78;7772015;32;37957;-75
2022/07/12 18:39:08;;;;;;;3.30;1.50;;;;;;;24.59;28.61;100117.03;7771566;32;36775;-74
2022/07/12 18:43:26;;;;;;;0.85;0.60;;;;;;;24.59;28.00;100128.97;7753984;32;39339;-75
2022/07/12 18:47:45;;;;;;;1.15;0.50;;;;;;;24.44;27.85;100121.38;7745972;32;40935;-74
2022/07/12 18:52:02;;;;;;;5.87;0.75;;;;;;;24.34;28.11;100128.28;7744616;32;38122;-75
2022/07/12 18:56:18;;;;;;;3.53;1.20;;;;;;;24.32;27.84;100130.62;7760940;32;36919;-74
2022/07/12 19:00:34;;;;;;;5.28;1.70;;;;;;;24.26;27.34;100132.84;7771037;32;40095;-75
2022/07/12 19:04:51;;;;;;;4.35;2.45;;;;;;;24.07;27.95;100141.06;7771181;32;40853;-74
2022/07/12 19:09:07;;;;;;;1.67;1.12;;;;;;;24.03;27.78;100151.31;7770561;32;38054;-74
2022/07/12 19:13:23;;;;;;;0.80;0.60;;;;;;;23.80;28.32;100157.38;7771002;32;37258;-73
2022/07/12 19:17:39;;;;;;;8.68;1.08;;;;;;;23.88;28.15;100153.66;7770962;32;39354;-74
2022/07/12 19:21:55;;;;;;;11.05;5.57;;;;;;;23.69;28.31;100156.25;7770195;32;39857;-74
2022/07/12 19:26:12;;;;;;;0.73;0.73;;;;;;;23.71;27.36;100165.06;7743084;32;37911;-74
2022/07/12 19:30:28;;;;;;;6.15;1.12;;;;;;;23.46;28.19;100170.66;7738712;32;36858;-74
2022/07/12 19:34:45;;;;;;;1.60;0.75;;;;;;;23.40;28.33;100167.31;7738853;32;39133;-74
2022/07/12 19:39:07;;;;;;;1.58;0.62;;;;;;;23.29;28.64;100168.12;7738399;32;39997;-73
2022/07/12 19:43:23;;;;;;;4.07;0.90;;;;;;;22.94;29.03;100174.09;7738337;32;38019;-73
2022/07/12 19:47:39;;;;;;;1.27;0.70;;;;;;;23.10;28.88;100177.88;7738588;32;37802;-75
2022/07/12 19:51:56;;;;;;;1.80;1.00;;;;;;;23.04;28.95;100180.03;7738371;32;40041;-74
2022/07/12 19:56:12;;;;;;;0.75;0.70;;;;;;;22.80;28.61;100189.16;7738335;32;39830;-74
2022/07/12 20:00:28;;;;;;;1.95;0.88;;;;;;;22.80;28.44;100186.37;7738260;32;38685;-74
2022/07/12 20:04:44;;;;;;;1.40;0.50;;;;;;;22.81;28.78;100189.97;7738231;32;37564;-74
2022/07/12 20:09:00;;;;;;;0.70;0.60;;;;;;;22.82;29.25;100195.19;7738253;32;40027;-74
2022/07/12 20:13:16;;;;;;;2.42;0.77;;;;;;;22.69;29.77;100191.56;7738133;32;39997;-75
2022/07/12 20:17:33;;;;;;;1.95;0.85;;;;;;;22.67;29.72;100195.84;7738259;32;38977;-75
2022/07/12 20:21:49;;;;;;;1.02;0.73;;;;;;;22.43;30.18;100200.16;7737997;32;37092;-74